Conway, Arkansas
Current Conditions -  °F | °C
As of 1:58 PM on Thursday 18 Dec 2014 (Local Time) from KLRF Reporting Station
Overcast Overcast  
Wind Chill: 41°   Ceiling: 600
Heat Index: 41°   Visibility: 10mi
Dew Point: 39°   Wind: 3mph
Humidity: 92%   Direction: 40°NE
Pressure: 30.17"   Gusts: NA
Location:  35.09°N, 92.44°W
Report Text: KLRF 181958Z AUTO 04003KT 10SM OVC006 05/04 A3017 RMK AO2 SLP221 T00510039
Loading
Personal Weather Stations






























Interactive Weather Map New forecast layout! Learn more

10-Day Weather Forecast

Advertisements
Track Severe Weather on mobile